Time;durP1;ratioP1;P1;durP2;ratioP2;P2;SDS_P1;SDS_P2;PMS_P1;PMS_P2;Temp;Humidity;BMP_temperature;BMP_pressure;BME280_temperature;BME280_humidity;BME280_pressure;Samples;Min_cycle;Max_cycle;Signal;HPM_P1;HPM_P2
2021/10/18 00:02:19;;;;;;;22.27;10.70;;;;;;;7.52;100.00;97314.47;5068075;28;20260;-72
2021/10/18 00:04:45;;;;;;;19.00;10.57;;;;;;;7.61;100.00;97310.69;5037272;28;20201;-71
2021/10/18 00:07:10;;;;;;;20.03;10.73;;;;;;;7.66;100.00;97313.50;5052400;28;20193;-71
2021/10/18 00:09:36;;;;;;;17.77;9.90;;;;;;;7.84;98.70;97315.59;5063205;28;20612;-71
2021/10/18 00:12:01;;;;;;;24.73;10.27;;;;;;;7.78;98.87;97326.81;5065122;28;20228;-71
2021/10/18 00:14:27;;;;;;;18.03;10.20;;;;;;;7.55;99.54;97321.88;5063498;28;20209;-71
2021/10/18 00:16:52;;;;;;;21.17;10.73;;;;;;;7.46;100.00;97328.28;5041097;28;20190;-71
2021/10/18 00:19:19;;;;;;;18.27;10.37;;;;;;;7.61;99.57;97326.34;5044219;28;20271;-71
2021/10/18 00:21:44;;;;;;;17.77;10.00;;;;;;;7.55;99.42;97334.94;5064517;28;20633;-72
2021/10/18 00:24:10;;;;;;;26.93;9.50;;;;;;;7.52;99.13;97346.53;5056170;28;20173;-71
2021/10/18 00:26:35;;;;;;;17.50;9.90;;;;;;;7.44;99.48;97345.91;5062805;28;20193;-71
2021/10/18 00:29:00;;;;;;;19.73;10.37;;;;;;;7.27;100.00;97355.03;5063585;28;20586;-71
2021/10/18 00:31:26;;;;;;;17.73;9.57;;;;;;;7.13;100.00;97353.34;5056241;28;20193;-71
2021/10/18 00:33:51;;;;;;;20.93;9.70;;;;;;;7.10;100.00;97352.72;5052508;28;20198;-71
2021/10/18 00:36:17;;;;;;;17.47;9.70;;;;;;;7.18;100.00;97354.41;5051849;28;20206;-71
2021/10/18 00:38:43;;;;;;;19.33;9.73;;;;;;;7.25;100.00;97349.19;5060153;28;20190;-72
2021/10/18 00:41:08;;;;;;;18.27;9.33;;;;;;;7.36;100.00;97346.88;5060767;28;20202;-71
2021/10/18 00:43:34;;;;;;;20.47;10.27;;;;;;;7.62;99.56;97346.22;5067298;28;20193;-71
2021/10/18 00:45:59;;;;;;;18.03;9.23;;;;;;;7.63;99.17;97344.41;5054039;28;20220;-71
2021/10/18 00:48:26;;;;;;;18.20;9.53;;;;;;;7.50;100.00;97347.75;5048092;28;20182;-71
2021/10/18 00:50:56;;;;;;;17.40;10.10;;;;;;;7.48;100.00;97340.13;5060735;28;20268;-71
2021/10/18 00:53:22;;;;;;;20.23;9.50;;;;;;;7.62;100.00;97348.81;5062076;28;20280;-71
2021/10/18 00:55:47;;;;;;;18.73;10.70;;;;;;;7.61;99.72;97346.41;5070822;28;20657;-71
2021/10/18 00:58:13;;;;;;;19.90;9.50;;;;;;;7.55;99.95;97353.19;5039985;28;20181;-70
2021/10/18 01:00:38;;;;;;;20.23;10.83;;;;;;;7.57;99.48;97353.00;5068462;28;20214;-70
2021/10/18 01:03:04;;;;;;;18.40;9.87;;;;;;;7.63;99.14;97350.44;5043209;28;20634;-70
2021/10/18 01:05:30;;;;;;;23.97;9.43;;;;;;;7.65;98.66;97358.03;5043115;28;20209;-71
2021/10/18 01:07:57;;;;;;;21.27;9.07;;;;;;;7.61;98.31;97362.84;5070087;28;20272;-70
2021/10/18 01:10:23;;;;;;;16.83;9.90;;;;;;;7.45;99.70;97352.75;5055072;28;20186;-70
2021/10/18 01:12:48;;;;;;;21.20;10.60;;;;;;;7.52;99.91;97353.59;5060878;28;20275;-70
2021/10/18 01:15:14;;;;;;;17.80;9.70;;;;;;;7.62;99.90;97364.47;5064615;28;20170;-70
2021/10/18 01:17:39;;;;;;;17.40;10.13;;;;;;;7.67;99.58;97363.88;5060398;28;20591;-70
2021/10/18 01:20:09;;;;;;;22.83;11.10;;;;;;;7.70;98.90;97351.25;5070541;28;20277;-70
2021/10/18 01:22:34;;;;;;;17.47;9.97;;;;;;;7.77;98.85;97354.69;5062055;28;20275;-70
2021/10/18 01:25:00;;;;;;;19.40;10.90;;;;;;;7.84;98.48;97354.72;5045257;28;20247;-69
2021/10/18 01:27:25;;;;;;;25.77;11.93;;;;;;;7.76;97.85;97368.75;5039097;28;20190;-69
2021/10/18 01:29:50;;;;;;;23.80;12.20;;;;;;;7.90;97.83;97361.78;5055862;28;20200;-69
2021/10/18 01:32:16;;;;;;;24.30;11.47;;;;;;;7.77;98.33;97359.91;5069550;28;20178;-69
2021/10/18 01:34:41;;;;;;;23.70;11.60;;;;;;;7.89;97.76;97353.16;5072514;28;20591;-70
2021/10/18 01:37:07;;;;;;;24.13;12.30;;;;;;;7.96;96.99;97347.97;5044811;28;20529;-69
2021/10/18 01:39:33;;;;;;;23.93;12.07;;;;;;;7.86;97.47;97347.50;5068428;28;20231;-70
2021/10/18 01:41:58;;;;;;;24.87;12.13;;;;;;;8.05;96.42;97348.56;5067375;28;20671;-70
2021/10/18 01:44:24;;;;;;;22.07;12.07;;;;;;;7.83;97.76;97347.91;5040620;28;20190;-70
2021/10/18 01:46:49;;;;;;;22.57;12.90;;;;;;;7.67;98.31;97348.22;5065311;28;20182;-70
2021/10/18 01:49:15;;;;;;;23.33;11.90;;;;;;;7.74;98.36;97349.06;5068155;28;20584;-71
2021/10/18 01:51:40;;;;;;;25.97;12.90;;;;;;;7.70;98.14;97346.03;5054524;28;20519;-70
2021/10/18 01:54:06;;;;;;;20.03;11.37;;;;;;;7.74;97.46;97342.06;5053567;28;20197;-71
2021/10/18 01:56:33;;;;;;;22.53;11.97;;;;;;;7.71;98.14;97347.66;5062495;28;20273;-71
2021/10/18 01:58:59;;;;;;;19.13;10.43;;;;;;;7.76;97.97;97357.50;5035874;28;20178;-71
2021/10/18 02:01:25;;;;;;;22.87;10.57;;;;;;;7.70;97.72;97353.84;5057250;28;20197;-70
2021/10/18 02:03:50;;;;;;;19.27;10.13;;;;;;;7.89;97.20;97362.78;5045882;28;20239;-71
2021/10/18 02:06:16;;;;;;;18.60;10.43;;;;;;;7.84;97.43;97360.75;5056947;28;20262;-70
2021/10/18 02:08:41;;;;;;;19.87;11.10;;;;;;;7.77;98.19;97357.31;5058094;28;20619;-71
2021/10/18 02:11:06;;;;;;;19.77;9.80;;;;;;;7.84;97.94;97363.38;5070359;28;20286;-70
2021/10/18 02:13:32;;;;;;;19.50;10.60;;;;;;;7.75;98.59;97350.66;5063452;28;20669;-71
2021/10/18 02:15:58;;;;;;;23.23;11.07;;;;;;;7.91;97.76;97348.50;5039466;28;20686;-71
2021/10/18 02:18:23;;;;;;;20.83;11.13;;;;;;;7.73;98.56;97350.88;5058521;28;20190;-71
2021/10/18 02:20:49;;;;;;;22.20;11.50;;;;;;;7.78;99.03;97360.72;5061476;28;20208;-71
2021/10/18 02:23:14;;;;;;;19.70;11.20;;;;;;;7.69;99.18;97364.50;5067506;28;20181;-71
2021/10/18 02:25:40;;;;;;;24.50;12.23;;;;;;;7.72;99.08;97359.69;5066412;28;20181;-71
2021/10/18 02:28:05;;;;;;;24.23;11.47;;;;;;;7.74;99.67;97351.69;5063574;28;20205;-71
2021/10/18 02:30:31;;;;;;;30.37;12.40;;;;;;;7.80;99.18;97350.91;5064120;28;20209;-71
2021/10/18 02:32:56;;;;;;;25.67;11.83;;;;;;;7.92;98.60;97344.91;5047918;28;20182;-71
2021/10/18 02:35:22;;;;;;;22.27;11.40;;;;;;;7.87;99.02;97352.53;5063240;28;20255;-71
2021/10/18 02:37:47;;;;;;;27.63;12.63;;;;;;;7.94;98.43;97353.38;5064223;28;20270;-71
2021/10/18 02:40:13;;;;;;;24.37;12.57;;;;;;;7.91;98.74;97345.91;5065542;28;20662;-70
2021/10/18 02:42:38;;;;;;;24.33;11.70;;;;;;;7.81;99.76;97337.66;5060985;28;20292;-71
2021/10/18 02:45:05;;;;;;;22.47;12.93;;;;;;;7.92;99.10;97334.47;5065915;28;20213;-70
2021/10/18 02:47:31;;;;;;;24.40;12.50;;;;;;;7.93;99.08;97349.13;5064623;28;20209;-70
2021/10/18 02:49:56;;;;;;;27.27;12.13;;;;;;;7.92;99.98;97349.31;5062442;28;20196;-70
2021/10/18 02:52:22;;;;;;;31.17;12.73;;;;;;;8.00;99.19;97343.13;5064490;28;20818;-70
2021/10/18 02:54:47;;;;;;;27.67;12.63;;;;;;;8.13;98.33;97349.22;5065900;28;20188;-71
2021/10/18 02:57:12;;;;;;;30.23;13.00;;;;;;;8.09;98.93;97352.38;5065237;28;20188;-70
2021/10/18 02:59:38;;;;;;;27.93;13.90;;;;;;;8.08;99.23;97348.19;5056956;28;20203;-70
2021/10/18 03:02:03;;;;;;;27.47;13.50;;;;;;;8.02;99.40;97344.56;5039556;28;20186;-70
2021/10/18 03:04:29;;;;;;;30.43;14.90;;;;;;;8.12;98.93;97342.38;5053947;28;20204;-71
2021/10/18 03:06:54;;;;;;;26.73;12.60;;;;;;;8.08;99.62;97340.34;5063731;28;20638;-70
2021/10/18 03:09:19;;;;;;;27.03;13.17;;;;;;;7.90;100.00;97349.53;5057424;28;20239;-71
2021/10/18 03:11:44;;;;;;;34.17;13.30;;;;;;;8.08;100.00;97354.19;5054684;28;20229;-71
2021/10/18 03:14:10;;;;;;;36.37;14.13;;;;;;;8.12;99.76;97358.03;5066998;28;20187;-70
2021/10/18 03:16:35;;;;;;;34.73;13.37;;;;;;;8.12;99.53;97355.44;5060411;28;20260;-70
2021/10/18 03:19:01;;;;;;;31.13;14.03;;;;;;;8.16;98.77;97361.06;5059787;28;20386;-71
2021/10/18 03:21:26;;;;;;;35.60;14.90;;;;;;;8.18;99.54;97362.47;5061602;28;20577;-70
2021/10/18 03:23:51;;;;;;;34.83;14.53;;;;;;;8.23;98.93;97362.69;5068148;28;20188;-71
2021/10/18 03:26:17;;;;;;;35.77;13.63;;;;;;;8.29;98.17;97364.50;5056728;28;20527;-70
2021/10/18 03:28:43;;;;;;;31.87;14.40;;;;;;;8.28;98.86;97369.94;5065457;28;20189;-70
2021/10/18 03:31:09;;;;;;;33.43;13.53;;;;;;;8.24;99.22;97371.34;5065410;28;20181;-70
2021/10/18 03:33:36;;;;;;;29.63;14.00;;;;;;;8.11;100.00;97374.69;5054697;28;20269;-71
2021/10/18 03:36:03;;;;;;;27.63;12.37;;;;;;;8.24;99.24;97387.81;5053632;28;20181;-70
2021/10/18 03:38:29;;;;;;;31.40;13.47;;;;;;;8.11;100.00;97382.53;5059588;28;20177;-71
2021/10/18 03:40:55;;;;;;;30.03;14.73;;;;;;;8.19;99.86;97376.34;5070564;28;20215;-71
2021/10/18 03:43:20;;;;;;;34.00;13.97;;;;;;;8.08;100.00;97382.13;5066309;28;20182;-70
2021/10/18 03:45:46;;;;;;;27.80;13.93;;;;;;;8.08;100.00;97389.97;5037544;28;20247;-71
2021/10/18 03:48:11;;;;;;;29.90;13.87;;;;;;;8.17;99.90;97384.34;5052450;28;20658;-70
2021/10/18 03:50:36;;;;;;;27.70;13.23;;;;;;;8.23;99.40;97383.56;5047707;28;20331;-70
2021/10/18 03:53:02;;;;;;;33.83;14.00;;;;;;;8.28;99.47;97391.63;5061288;28;20315;-70
2021/10/18 03:55:28;;;;;;;25.47;12.77;;;;;;;8.28;99.28;97394.25;5049217;28;20190;-70
2021/10/18 03:57:53;;;;;;;31.73;13.07;;;;;;;8.16;99.71;97402.81;5052015;28;20182;-71
2021/10/18 04:00:19;;;;;;;35.40;13.50;;;;;;;8.18;99.00;97399.03;5067836;28;20236;-70
2021/10/18 04:02:44;;;;;;;28.43;12.97;;;;;;;8.28;98.18;97399.47;5062548;28;20635;-70
2021/10/18 04:05:10;;;;;;;31.20;14.70;;;;;;;8.27;98.58;97408.28;5049683;28;20205;-70
2021/10/18 04:07:38;;;;;;;31.33;13.20;;;;;;;8.32;98.35;97408.53;5058923;28;20197;-71
2021/10/18 04:10:04;;;;;;;31.00;13.17;;;;;;;8.32;98.88;97412.94;5066195;28;20200;-70
2021/10/18 04:12:30;;;;;;;31.27;14.00;;;;;;;8.23;99.37;97403.66;5061015;28;20229;-70
2021/10/18 04:14:55;;;;;;;31.20;14.10;;;;;;;8.28;98.76;97409.09;5054234;28;20186;-70
2021/10/18 04:17:20;;;;;;;31.20;13.43;;;;;;;8.13;99.91;97408.44;5065884;28;20193;-70
2021/10/18 04:19:46;;;;;;;30.17;13.73;;;;;;;8.16;100.00;97413.28;5059665;28;20684;-70
2021/10/18 04:22:11;;;;;;;36.57;15.17;;;;;;;8.36;98.76;97411.53;5061662;28;20272;-70
2021/10/18 04:24:36;;;;;;;33.03;13.73;;;;;;;8.39;98.60;97405.94;5047956;28;20186;-70
2021/10/18 04:27:02;;;;;;;30.80;14.40;;;;;;;8.37;98.81;97412.34;5057499;28;20181;-70
2021/10/18 04:29:27;;;;;;;36.13;14.50;;;;;;;8.27;99.39;97415.31;5060164;28;20248;-70
2021/10/18 04:31:57;;;;;;;37.63;13.87;;;;;;;8.26;100.00;97417.13;5071101;28;20186;-70
2021/10/18 04:34:24;;;;;;;43.20;14.40;;;;;;;8.30;99.75;97412.34;5042505;28;20185;-70
2021/10/18 04:36:49;;;;;;;31.30;14.03;;;;;;;8.22;100.00;97420.31;5058482;28;20642;-71
2021/10/18 04:39:15;;;;;;;32.77;14.60;;;;;;;8.15;100.00;97416.88;5068758;28;20241;-70
2021/10/18 04:41:40;;;;;;;31.63;13.67;;;;;;;8.12;100.00;97419.88;5064533;28;20219;-70
2021/10/18 04:44:06;;;;;;;33.03;12.97;;;;;;;8.03;100.00;97427.06;5061697;28;20186;-70
2021/10/18 04:46:31;;;;;;;31.53;14.33;;;;;;;8.14;100.00;97428.31;5070868;28;20192;-71
2021/10/18 04:48:56;;;;;;;33.13;14.50;;;;;;;8.09;100.00;97422.88;5057793;28;20182;-70
2021/10/18 04:51:22;;;;;;;36.53;15.10;;;;;;;8.27;100.00;97431.00;5050238;28;20224;-70
2021/10/18 04:53:47;;;;;;;33.20;15.00;;;;;;;8.34;98.86;97427.44;5061825;28;20186;-70
2021/10/18 04:56:12;;;;;;;29.97;13.77;;;;;;;8.26;99.80;97421.53;5074668;28;20188;-70
2021/10/18 04:58:38;;;;;;;33.93;15.03;;;;;;;8.30;99.37;97425.41;5055867;28;20300;-71
2021/10/18 05:01:03;;;;;;;37.07;15.00;;;;;;;8.38;98.93;97427.03;5071849;28;20205;-70
2021/10/18 05:03:29;;;;;;;34.40;15.13;;;;;;;8.34;99.16;97437.06;5072280;28;20235;-70
2021/10/18 05:05:54;;;;;;;34.50;15.03;;;;;;;8.37;99.09;97434.06;5056683;28;20186;-71
2021/10/18 05:08:19;;;;;;;36.93;15.67;;;;;;;8.30;99.98;97446.31;5072693;28;20185;-71
2021/10/18 05:10:45;;;;;;;33.20;15.00;;;;;;;8.39;99.47;97441.72;5040351;28;20189;-70
2021/10/18 05:13:12;;;;;;;36.43;15.90;;;;;;;8.42;99.23;97442.09;5060789;28;20300;-70
2021/10/18 05:15:38;;;;;;;36.73;15.80;;;;;;;8.38;99.62;97435.66;5070333;28;20607;-71
2021/10/18 05:18:04;;;;;;;36.30;16.10;;;;;;;8.48;99.25;97438.72;5058866;28;20182;-70
2021/10/18 05:20:32;;;;;;;40.57;16.87;;;;;;;8.46;99.43;97453.00;5073181;28;20250;-71
2021/10/18 05:22:58;;;;;;;37.27;15.50;;;;;;;8.45;99.75;97452.19;5068110;28;20186;-71
2021/10/18 05:25:24;;;;;;;34.00;15.87;;;;;;;8.54;98.69;97460.63;5043838;28;20197;-70
2021/10/18 05:27:50;;;;;;;32.27;15.37;;;;;;;8.53;98.88;97464.25;5047181;28;20233;-71
2021/10/18 05:30:19;;;;;;;36.43;15.03;;;;;;;8.49;99.29;97456.00;5055327;28;20288;-71
2021/10/18 05:32:45;;;;;;;36.50;16.03;;;;;;;8.49;99.00;97458.63;5072114;28;20212;-70
2021/10/18 05:35:10;;;;;;;31.60;14.00;;;;;;;8.50;99.36;97460.22;5059887;28;20197;-71
2021/10/18 05:37:44;;;;;;;31.67;14.27;;;;;;;8.71;98.29;97449.63;5059883;28;20189;-69
2021/10/18 05:40:10;;;;;;;34.17;13.67;;;;;;;8.56;99.23;97448.19;5070687;28;20296;-69
2021/10/18 05:42:36;;;;;;;36.80;15.17;;;;;;;8.66;99.35;97452.03;5063582;28;20552;-69
2021/10/18 05:45:02;;;;;;;31.50;15.20;;;;;;;8.61;99.00;97454.44;5039805;28;20225;-69
2021/10/18 05:47:27;;;;;;;30.43;13.77;;;;;;;8.73;98.15;97457.28;5054853;28;20190;-71
2021/10/18 05:49:53;;;;;;;26.00;12.90;;;;;;;8.63;98.46;97456.84;5067857;28;20275;-70
2021/10/18 05:52:18;;;;;;;29.13;13.13;;;;;;;8.63;98.24;97454.25;5064963;28;20181;-70
2021/10/18 05:54:44;;;;;;;31.70;14.20;;;;;;;8.61;97.89;97470.09;5058333;28;20276;-70
2021/10/18 05:57:10;;;;;;;33.20;14.10;;;;;;;8.63;97.85;97462.88;5067260;28;20476;-70
2021/10/18 05:59:35;;;;;;;29.77;14.83;;;;;;;8.58;97.80;97470.47;5065285;28;20260;-69
2021/10/18 06:02:00;;;;;;;31.63;13.70;;;;;;;8.77;96.96;97469.75;5041745;28;20182;-69
2021/10/18 06:04:26;;;;;;;27.63;14.03;;;;;;;8.71;97.11;97488.03;5068098;28;20200;-70
2021/10/18 06:06:51;;;;;;;30.87;13.33;;;;;;;8.71;96.87;97482.78;5039454;28;20301;-70
2021/10/18 06:09:17;;;;;;;24.07;12.93;;;;;;;8.71;97.03;97485.41;5056191;28;20526;-69
2021/10/18 06:11:42;;;;;;;24.03;11.83;;;;;;;8.88;96.25;97480.63;5064651;28;20225;-70
2021/10/18 06:14:11;;;;;;;21.63;11.70;;;;;;;8.79;96.57;97481.81;5045172;28;20178;-69
2021/10/18 06:16:36;;;;;;;25.07;12.03;;;;;;;8.99;94.88;97488.69;5053511;28;20315;-69
2021/10/18 06:19:02;;;;;;;28.47;13.53;;;;;;;8.81;95.82;97491.06;5070150;28;20264;-69
2021/10/18 06:21:27;;;;;;;26.47;12.90;;;;;;;8.89;95.67;97490.88;5060211;28;20208;-69
2021/10/18 06:23:53;;;;;;;29.47;13.17;;;;;;;8.87;95.88;97498.09;5057568;28;20273;-69
2021/10/18 06:26:18;;;;;;;29.03;13.80;;;;;;;8.96;95.66;97493.50;5071017;28;20189;-69
2021/10/18 06:28:43;;;;;;;27.30;13.13;;;;;;;8.99;95.24;97496.53;5067985;28;20192;-69
2021/10/18 06:31:09;;;;;;;27.20;13.70;;;;;;;9.07;94.95;97498.97;5060146;28;20226;-70
2021/10/18 06:33:34;;;;;;;28.13;13.00;;;;;;;8.91;95.96;97498.53;5065019;28;20640;-68
2021/10/18 06:36:00;;;;;;;29.03;14.10;;;;;;;8.77;96.98;97502.91;5054756;28;20189;-68
2021/10/18 06:38:26;;;;;;;26.80;13.27;;;;;;;8.84;96.84;97500.31;5072753;28;20590;-69
2021/10/18 06:40:52;;;;;;;30.87;14.47;;;;;;;9.08;95.35;97510.22;5062834;28;20209;-69
2021/10/18 06:43:20;;;;;;;32.83;14.73;;;;;;;9.21;94.97;97507.63;5068454;28;20194;-69
2021/10/18 06:45:47;;;;;;;25.57;12.90;;;;;;;9.25;94.70;97516.66;5055027;28;20190;-69
2021/10/18 06:48:14;;;;;;;35.83;14.37;;;;;;;9.34;94.07;97515.47;5060225;28;20205;-69
2021/10/18 06:50:42;;;;;;;29.27;13.87;;;;;;;9.38;93.36;97521.91;5067822;28;20260;-69
2021/10/18 06:53:14;;;;;;;28.30;14.17;;;;;;;9.37;94.36;97525.53;5073643;28;20174;-70
2021/10/18 06:55:39;;;;;;;32.17;14.40;;;;;;;9.51;93.19;97528.97;5073551;28;20161;-69
2021/10/18 06:58:06;;;;;;;29.73;13.27;;;;;;;9.54;93.08;97531.19;5073137;28;20219;-69
2021/10/18 07:00:31;;;;;;;28.27;13.57;;;;;;;9.65;92.36;97535.00;5073233;28;20197;-70
2021/10/18 07:02:57;;;;;;;28.03;14.90;;;;;;;9.49;93.14;97544.06;5058320;28;20232;-69
2021/10/18 07:05:22;;;;;;;31.63;14.07;;;;;;;9.58;92.40;97546.28;5052788;28;20232;-68
2021/10/18 07:07:47;;;;;;;27.23;14.43;;;;;;;9.56;92.34;97553.53;5041405;28;20271;-69
2021/10/18 07:10:13;;;;;;;28.43;14.10;;;;;;;9.66;91.80;97549.69;5054575;28;20722;-69
2021/10/18 07:12:39;;;;;;;27.90;12.77;;;;;;;9.81;91.11;97551.09;5073555;28;20656;-69
2021/10/18 07:15:05;;;;;;;29.43;15.43;;;;;;;9.45;92.63;97550.72;5072796;28;20256;-69
2021/10/18 07:17:30;;;;;;;27.57;14.70;;;;;;;9.49;92.48;97555.34;5072009;28;20531;-69
2021/10/18 07:19:57;;;;;;;26.03;13.90;;;;;;;9.38;93.48;97550.69;5066993;28;20311;-69
2021/10/18 07:22:26;;;;;;;27.67;14.43;;;;;;;9.40;93.37;97553.13;5062501;28;20200;-69
2021/10/18 07:24:53;;;;;;;30.60;15.47;;;;;;;9.55;93.20;97553.72;5058565;28;20177;-69
2021/10/18 07:27:19;;;;;;;25.07;14.00;;;;;;;9.46;93.29;97554.94;5069565;28;20185;-68
2021/10/18 07:29:45;;;;;;;28.77;14.20;;;;;;;9.26;95.09;97556.72;5056076;28;20212;-69
2021/10/18 07:32:11;;;;;;;29.10;14.70;;;;;;;9.35;94.54;97550.31;5065945;28;20189;-68
2021/10/18 07:34:36;;;;;;;32.07;17.30;;;;;;;9.02;96.10;97558.91;5043918;28;20193;-68
2021/10/18 07:37:02;;;;;;;31.77;17.30;;;;;;;9.01;96.26;97561.69;5063303;28;20200;-69
2021/10/18 07:39:28;;;;;;;29.80;17.83;;;;;;;8.80;98.03;97554.81;5062734;28;20196;-69
2021/10/18 07:41:56;;;;;;;33.30;18.07;;;;;;;9.13;96.13;97560.94;5059233;28;20297;-68
2021/10/18 07:44:24;;;;;;;28.63;15.63;;;;;;;9.19;94.46;97565.34;5067194;28;20177;-69
2021/10/18 07:46:50;;;;;;;27.30;14.90;;;;;;;9.26;93.94;97565.38;5061656;28;20273;-71
2021/10/18 07:49:16;;;;;;;24.30;13.73;;;;;;;9.30;93.21;97560.56;5061522;28;20181;-68
2021/10/18 07:51:41;;;;;;;23.97;13.73;;;;;;;9.46;92.67;97557.56;5061717;28;20293;-69
2021/10/18 07:54:06;;;;;;;23.60;13.90;;;;;;;9.45;92.13;97558.56;5065445;28;20188;-68
2021/10/18 07:56:32;;;;;;;27.87;13.90;;;;;;;9.56;91.38;97561.38;5064535;28;20708;-69
2021/10/18 07:58:58;;;;;;;23.97;14.27;;;;;;;9.65;91.17;97561.16;5064918;28;20182;-69
2021/10/18 08:01:23;;;;;;;24.53;14.87;;;;;;;9.66;90.72;97570.63;5065794;28;20662;-68
2021/10/18 08:03:49;;;;;;;21.60;13.30;;;;;;;9.67;90.14;97570.44;5066074;28;20308;-70
2021/10/18 08:06:14;;;;;;;21.40;13.57;;;;;;;9.61;89.69;97571.25;5064006;28;20216;-69
2021/10/18 08:08:58;;;;;;;21.87;13.80;;;;;;;9.78;89.15;97577.69;5069043;28;20510;-69
2021/10/18 08:11:23;;;;;;;29.03;14.23;;;;;;;9.86;88.35;97572.25;5062383;28;20221;-68
2021/10/18 08:13:49;;;;;;;19.93;12.97;;;;;;;9.97;87.74;97578.72;5065986;28;20184;-69
2021/10/18 08:16:15;;;;;;;22.03;13.77;;;;;;;9.97;87.36;97578.72;5064739;28;20246;-68
2021/10/18 08:18:41;;;;;;;25.43;14.60;;;;;;;9.79;88.19;97579.31;5047046;28;20265;-69
2021/10/18 08:21:08;;;;;;;23.77;13.83;;;;;;;9.67;88.87;97582.72;5065966;28;20614;-69
2021/10/18 08:23:34;;;;;;;25.60;14.30;;;;;;;9.65;88.09;97575.06;5068099;28;20269;-68
2021/10/18 08:26:01;;;;;;;25.60;14.87;;;;;;;9.78;87.82;97576.88;5064595;28;20646;-69
2021/10/18 08:28:27;;;;;;;23.47;13.90;;;;;;;9.80;87.69;97580.13;5069423;28;20260;-69
2021/10/18 08:30:53;;;;;;;24.20;13.50;;;;;;;9.78;87.99;97576.88;5069837;28;20261;-69
2021/10/18 08:33:18;;;;;;;26.47;14.20;;;;;;;9.62;88.86;97575.47;5071329;28;20233;-71
2021/10/18 08:35:44;;;;;;;24.30;14.97;;;;;;;9.74;88.19;97580.91;5070442;28;20197;-68
2021/10/18 08:40:59;;;;;;;22.37;13.97;;;;;;;10.01;87.39;97582.53;5060990;28;20209;-68
2021/10/18 08:45:51;;;;;;;24.33;14.20;;;;;;;10.37;84.68;97585.50;5070231;28;20186;-68
2021/10/18 08:48:16;;;;;;;24.63;13.53;;;;;;;10.24;85.44;97584.75;5062847;28;20201;-68
2021/10/18 08:50:41;;;;;;;22.27;14.20;;;;;;;10.25;85.04;97586.34;5049214;28;20280;-68
2021/10/18 08:53:07;;;;;;;24.20;14.13;;;;;;;10.32;84.75;97582.69;5064249;28;20181;-68
2021/10/18 08:55:37;;;;;;;26.67;13.93;;;;;;;10.25;84.75;97594.22;5063458;28;20190;-68
2021/10/18 08:58:04;;;;;;;26.27;14.20;;;;;;;10.28;86.12;97588.56;5069820;28;20273;-68
2021/10/18 09:00:48;;;;;;;22.83;14.50;;;;;;;10.21;86.39;97593.00;5069264;28;20531;-70
2021/10/18 09:03:22;;;;;;;22.90;14.23;;;;;;;9.94;86.10;97600.03;5056271;28;20187;-69
2021/10/18 09:05:48;;;;;;;21.93;14.80;;;;;;;9.49;88.24;97605.06;5058498;28;20174;-68
2021/10/18 09:08:38;;;;;;;21.73;13.70;;;;;;;9.04;90.30;97597.91;5055449;28;20185;-68
2021/10/18 09:11:09;;;;;;;21.67;13.67;;;;;;;8.84;91.06;97599.66;5056817;28;20227;-68
2021/10/18 09:13:36;;;;;;;23.90;12.93;;;;;;;8.74;92.71;97600.84;5067927;28;20248;-68
2021/10/18 09:16:02;;;;;;;25.50;14.67;;;;;;;9.06;90.96;97604.56;5067802;28;20192;-69
2021/10/18 09:18:27;;;;;;;21.37;14.47;;;;;;;9.04;91.17;97601.31;5065692;28;20520;-68
2021/10/18 09:20:53;;;;;;;23.07;14.37;;;;;;;9.22;90.29;97600.78;5047188;28;20219;-69
2021/10/18 09:23:26;;;;;;;23.17;14.00;;;;;;;9.05;90.89;97600.31;5059590;28;20231;-69
2021/10/18 09:25:58;;;;;;;21.40;13.97;;;;;;;9.03;91.63;97604.94;5059052;28;20238;-71
2021/10/18 09:28:25;;;;;;;22.90;13.77;;;;;;;9.43;89.74;97615.50;5059915;28;20177;-69
2021/10/18 09:30:51;;;;;;;23.57;14.03;;;;;;;9.92;87.09;97609.91;5060567;28;20701;-70
2021/10/18 09:33:36;;;;;;;25.30;14.57;;;;;;;10.02;85.97;97611.13;5041677;28;20181;-71
2021/10/18 09:36:05;;;;;;;26.07;14.27;;;;;;;10.17;84.73;97607.50;5058217;28;20181;-68
2021/10/18 09:38:30;;;;;;;21.23;12.87;;;;;;;10.35;83.84;97600.63;5062513;28;20174;-70
2021/10/18 09:40:58;;;;;;;23.80;12.70;;;;;;;10.56;83.11;97610.06;5048941;28;20209;-69
2021/10/18 09:43:35;;;;;;;20.13;13.27;;;;;;;10.68;80.91;97600.56;5060297;28;20226;-69
2021/10/18 10:53:12;;;;;;;17.27;11.93;;;;;;;12.98;70.77;97584.81;5062468;28;20534;-69
2021/10/18 10:55:39;;;;;;;18.67;12.33;;;;;;;13.52;68.78;97577.81;5067046;28;20508;-70
2021/10/18 10:58:31;;;;;;;18.67;12.40;;;;;;;13.63;68.18;97580.47;5058940;28;20687;-70
2021/10/18 11:00:57;;;;;;;19.53;11.53;;;;;;;13.72;67.47;97591.47;5058693;28;20308;-70
2021/10/18 11:03:30;;;;;;;17.80;11.03;;;;;;;13.89;66.31;97581.88;5057148;28;20197;-66
2021/10/18 11:06:04;;;;;;;15.47;10.43;;;;;;;13.94;66.21;97586.47;5061388;28;20223;-68
2021/10/18 11:08:35;;;;;;;14.30;10.23;;;;;;;14.03;65.62;97583.28;5057679;28;20180;-69
2021/10/18 11:11:07;;;;;;;15.90;10.40;;;;;;;13.94;65.97;97582.00;5058293;28;20186;-68
2021/10/18 11:13:42;;;;;;;16.67;10.70;;;;;;;13.83;66.11;97577.53;5065315;28;20190;-68
2021/10/18 11:16:07;;;;;;;14.40;10.30;;;;;;;13.21;66.63;97574.38;5057760;28;20192;-68
2021/10/18 11:18:32;;;;;;;16.13;10.43;;;;;;;13.21;67.63;97578.84;5067401;28;20196;-69
2021/10/18 11:21:11;;;;;;;14.40;10.77;;;;;;;13.01;68.58;97573.03;5058903;28;20300;-68
2021/10/18 11:24:00;;;;;;;14.00;10.00;;;;;;;12.89;69.26;97576.41;5068721;28;20177;-68
2021/10/18 11:26:28;;;;;;;17.70;10.83;;;;;;;12.81;68.91;97579.34;5058014;28;20186;-68
2021/10/18 11:29:00;;;;;;;18.17;11.53;;;;;;;12.70;69.68;97569.56;5066787;28;20189;-68
2021/10/18 11:31:36;;;;;;;16.17;10.87;;;;;;;12.74;70.47;97578.63;5066636;28;20181;-68
2021/10/18 11:34:09;;;;;;;14.90;10.63;;;;;;;12.72;70.77;97567.50;5046048;28;20546;-70
2021/10/18 11:36:40;;;;;;;15.57;10.63;;;;;;;12.75;70.10;97553.94;5042092;28;20178;-68
2021/10/18 11:39:32;;;;;;;16.43;10.63;;;;;;;12.22;70.82;97560.78;5060025;28;20182;-68
2021/10/18 11:42:09;;;;;;;15.83;10.73;;;;;;;12.47;71.04;97557.09;5054708;28;20220;-69
2021/10/18 11:44:49;;;;;;;16.03;10.53;;;;;;;12.63;70.59;97549.63;5064398;28;20185;-69
2021/10/18 11:47:32;;;;;;;16.13;10.17;;;;;;;12.81;69.91;97555.69;5063811;28;20205;-68
2021/10/18 11:50:04;;;;;;;16.03;10.80;;;;;;;12.80;70.21;97559.34;5056955;28;20182;-69
2021/10/18 11:52:30;;;;;;;14.33;9.30;;;;;;;12.92;70.38;97556.75;5066799;28;20197;-68
2021/10/18 11:54:55;;;;;;;16.77;10.77;;;;;;;13.12;69.19;97548.63;5056217;28;20231;-70
2021/10/18 11:57:21;;;;;;;15.30;10.80;;;;;;;12.77;70.84;97545.78;5045276;28;20186;-69
2021/10/18 11:59:47;;;;;;;17.40;10.13;;;;;;;12.38;72.83;97547.88;5048144;28;20182;-68
2021/10/18 12:02:24;;;;;;;16.67;11.40;;;;;;;11.97;74.30;97550.31;5062112;28;20221;-68
2021/10/18 12:05:04;;;;;;;16.70;11.43;;;;;;;11.88;74.87;97551.59;5071538;28;20238;-68
2021/10/18 12:07:40;;;;;;;19.00;10.97;;;;;;;11.73;75.51;97538.81;5055651;28;20181;-70
2021/10/18 12:10:22;;;;;;;16.80;10.80;;;;;;;11.50;76.01;97525.44;5042348;28;20269;-69
2021/10/18 12:13:09;;;;;;;19.43;10.97;;;;;;;11.51;76.33;97524.41;5040346;28;20226;-69
2021/10/18 12:16:19;;;;;;;18.90;10.77;;;;;;;11.63;75.29;97518.25;5052423;28;20181;-70
2021/10/18 12:18:52;;;;;;;16.10;10.57;;;;;;;11.62;75.37;97511.41;5041207;28;20281;-68
2021/10/18 12:21:25;;;;;;;15.17;9.97;;;;;;;11.89;75.59;97504.09;5045667;28;20217;-69
2021/10/18 12:23:51;;;;;;;14.17;9.57;;;;;;;12.26;74.01;97510.19;5069118;28;20194;-68
2021/10/18 12:26:22;;;;;;;13.07;9.50;;;;;;;12.53;72.57;97507.28;5057965;28;20220;-70
2021/10/18 12:28:52;;;;;;;14.70;9.77;;;;;;;12.51;72.42;97515.38;5049744;28;20174;-69
2021/10/18 12:31:46;;;;;;;16.50;11.20;;;;;;;12.39;72.90;97507.41;5057417;28;20515;-69
2021/10/18 12:34:22;;;;;;;15.83;10.53;;;;;;;12.46;73.32;97505.53;5056500;28;20645;-68
2021/10/18 12:37:02;;;;;;;15.97;10.87;;;;;;;12.47;73.38;97501.06;5061903;28;20260;-68
2021/10/18 12:39:47;;;;;;;15.73;10.10;;;;;;;12.59;74.24;97490.59;5053846;28;20523;-69